Terminal Aerodrome Forecast
Issued by NWS Sioux Falls, SD

Home | Current Version | Previous Version | Text Only | Print | Product List | Glossary On
Versions: 1 2 3 4 5 6 7 8 9 10 11 12 13 14 15 16 17 18 19
000
FTUS43 KFSD 150500
TAFFSD
TAF
KFSD 150520Z 1506/1606 VRB03KT P6SM SKC
     FM151500 16009KT P6SM FEW120
     FM151900 16015G21KT P6SM SCT120
     FM152300 17018G26KT P6SM BKN120
     FM160200 14015KT P6SM BKN100=

USA.gov is the U.S. government's official web portal to all federal, state and local government web resources and services.